Little Diamond Island, Maine
Current Conditions -  °F | °C
As of 7:51 PM on Friday 24 Oct 2014 (Local Time) from KPWM Reporting Station
Overcast Overcast  
Wind Chill: 51°   Ceiling: 4600
Heat Index: 51°   Visibility: 10mi
Dew Point: 43°   Wind: 8mph
Humidity: 74%   Direction: 340°NNW
Pressure: 29.7"   Gusts: NA
Location:  43.6801°N, 70.1969°W
Report Text: KPWM 242351Z 34007KT 10SM OVC046 11/06 A2970 RMK AO2 SLP057 T01060061 10122 20106 51014
Loading
Personal Weather Stations






























Interactive Weather Map
Tropical Storm Tracking
New forecast layout! Learn more

10-Day Weather Forecast

Advertisements
Track Severe Weather on mobile